Delphos, Ohio
Current Conditions -  °F | °C
As of 7:25 PM on Sunday 25 Jan 2015 (Local Time) from KAOH Reporting Station
Moderate Snow Moderate Snow  
Wind Chill:   Ceiling: 1000
Heat Index: 22°   Visibility: 0.5mi
Dew Point: 17°   Wind: 20mph
Humidity: 82%   Direction: 40°NE
Pressure: 29.81"   Gusts: 35mph
Location:  40.84°N, 84.34°W
Report Text: KAOH 260025Z AUTO 04017G30KT 1/2SM SN VV010 M06/M08 A2981 RMK AO2 PK WND 05030/0021 P0000 T10561083
Loading
Personal Weather Stations






























Interactive Weather Map New forecast layout! Learn more

10-Day Weather Forecast

Advertisements
Track Severe Weather on mobile